TimeEDT,TemperatureF,Dew PointF,Humidity,Sea Level PressureIn,VisibilityMPH,Wind Direction,Wind SpeedMPH,Gust SpeedMPH,PrecipitationIn,Events,Conditions,WindDirDegrees,DateUTC
12:53 AM,51.1,42.1,71,30.27,10.0,Calm,Calm,-,N/A,,Clear,0,2013-03-30 04:53:00
1:53 AM,51.1,43.0,74,30.27,10.0,West,4.6,-,N/A,,Clear,270,2013-03-30 05:53:00
2:53 AM,50.0,43.0,77,30.27,10.0,Calm,Calm,-,N/A,,Clear,0,2013-03-30 06:53:00
3:53 AM,48.0,42.1,80,30.25,10.0,Calm,Calm,-,N/A,,Clear,0,2013-03-30 07:53:00
4:53 AM,50.0,42.1,74,30.25,10.0,Calm,Calm,-,N/A,,Clear,0,2013-03-30 08:53:00
5:53 AM,48.9,43.0,80,30.24,10.0,Calm,Calm,-,N/A,,Clear,0,2013-03-30 09:53:00
6:53 AM,46.9,41.0,80,30.24,10.0,Calm,Calm,-,N/A,,Clear,0,2013-03-30 10:53:00
7:53 AM,48.9,44.1,83,30.26,10.0,Calm,Calm,-,N/A,,Clear,0,2013-03-30 11:53:00
8:53 AM,57.0,48.9,74,30.28,10.0,Calm,Calm,-,N/A,,Clear,0,2013-03-30 12:53:00
9:53 AM,64.9,48.0,54,30.28,10.0,SSW,3.5,-,N/A,,Clear,210,2013-03-30 13:53:00
10:53 AM,69.1,48.9,49,30.28,10.0,South,8.1,-,N/A,,Clear,180,2013-03-30 14:53:00
11:53 AM,73.0,48.0,41,30.26,10.0,South,6.9,-,N/A,,Clear,180,2013-03-30 15:53:00
12:53 PM,73.0,46.0,38,30.24,10.0,Variable,5.8,-,N/A,,Clear,0,2013-03-30 16:53:00
1:53 PM,73.9,43.0,33,30.22,10.0,Variable,5.8,18.4,N/A,,Scattered Clouds,0,2013-03-30 17:53:00
2:53 PM,75.9,43.0,31,30.19,10.0,WSW,6.9,-,N/A,,Scattered Clouds,250,2013-03-30 18:53:00
3:53 PM,77.0,42.1,29,30.16,10.0,South,11.5,19.6,N/A,,Partly Cloudy,180,2013-03-30 19:53:00
4:53 PM,75.9,43.0,31,30.14,10.0,Variable,5.8,-,N/A,,Scattered Clouds,0,2013-03-30 20:53:00
5:53 PM,75.9,44.1,32,30.13,10.0,SW,6.9,-,N/A,,Mostly Cloudy,220,2013-03-30 21:53:00
6:53 PM,75.0,45.0,34,30.14,10.0,SE,8.1,-,N/A,,Mostly Cloudy,130,2013-03-30 22:53:00
7:53 PM,69.1,52.0,54,30.15,10.0,SE,11.5,-,N/A,,Overcast,130,2013-03-30 23:53:00
8:53 PM,66.0,52.0,60,30.17,10.0,SSE,6.9,-,N/A,,Scattered Clouds,150,2013-03-31 00:53:00
9:53 PM,66.9,51.1,57,30.19,10.0,South,6.9,-,N/A,,Clear,180,2013-03-31 01:53:00
10:53 PM,64.9,52.0,63,30.20,10.0,South,4.6,-,N/A,,Clear,170,2013-03-31 02:53:00
11:53 PM,64.0,52.0,65,30.19,10.0,South,4.6,-,N/A,,Clear,180,2013-03-31 03:53:00